Airfield :
LOGIN :

Register | Disclaimer

   EN    FR    IT 

 










Legend :    VFR   Marginal VFR   IFR   Intensive IFR   Very Intensive IFR
Visi :
Ceiling :
>= 8 km
>= 3000ft
5 to 8 km
1000 to 3000 ft
1500m to 5 km
500 to 1000 ft
800 to 1500m
200 to 500 ft
< 800m
< 200 ft
Symbols :   Thunderstorms  Fog  Heavy snow  Heavy precipitations  Wind > 20 kt
SIGMETs :     Misc.  Thunderstorms  Icing  Turbulence  Mountain Waves  Volcanic Ashes






- Airport Elevation : 17 ft
- IATA code : GRQ


EHGG - Groningen Eelde

CURRENT METAR :
  • 270725Z AUTO 19008KT 9999 NSC 01/00 Q1000 NOSIG

EXPIRED METARs :
  • 270655Z AUTO 20008KT 9999 NSC 01/00 Q1000 NOSIG
  • 270625Z AUTO 19008KT 160V220 9999 NSC 01/00 Q1000
  • 270555Z AUTO 20008KT 9999 NSC 01/00 Q1001
  • 270525Z AUTO 20008KT 170V230 9999 NSC 01/00 Q1001 NOSIG
  • 270455Z AUTO 21008KT 9999 FEW023 01/00 Q1001
  • 270425Z AUTO 21008KT 9999 NSC 01/00 Q1001

TAF TAF EHGG
Valid from the 27 at 06:00 until the 28 at 12:00 UTC


270515Z 2706/2812 20008KT CAVOK
TEMPO 2713/2719 4000 RA -SHRASNGS BKN006 FEW015CB
BECMG 2717/2719 7000 RA BKN006
PROB30
TEMPO 2719/2722 30012G22KT 2000 SHGSRA SHRAGSSN BKN004 SCT015CB
BECMG 2720/2722 30010KT 9999 NSW SCT030
BECMG 2723/2802 27008KT
BECMG 2807/2810 23012KT



MET'MAP, your aeronautical weather chart ! - Copyright ORBIFLY December 2007 - Disclaimer

ORBIFLY MET'MAP TEAM :

Programming & Development : Alexandra Zaïnal
Concept & original design : Baudouin d'Aumeries
Assistance for programming : Marc-Olivier Méhu
Technical & hardware support : Manuel Goepfert

Contact : metmap@orbifly.com




SOURCES & CREDITS :

   NOAA